Time;durP1;ratioP1;P1;durP2;ratioP2;P2;SDS_P1;SDS_P2;PMS_P1;PMS_P2;Temp;Humidity;BMP_temperature;BMP_pressure;BME280_temperature;BME280_humidity;BME280_pressure;Samples;Min_cycle;Max_cycle;Signal;HPM_P1;HPM_P2
2021/11/03 00:00:07;;;;;;;;;;;;;;;5.00;82.72;95529.44;30001;986;1880;-61
2021/11/03 00:00:42;;;;;;;;;;;;;;;4.98;83.01;95527.03;30001;983;1880;-61
2021/11/03 00:01:14;;;;;;;;;;;;;;;5.01;82.98;95525.66;30001;983;1880;-60
2021/11/03 00:01:46;;;;;;;;;;;;;;;5.02;82.77;95527.25;30001;983;1880;-61
2021/11/03 00:02:20;;;;;;;;;;;;;;;5.01;83.06;95525.66;30001;983;1880;-60
2021/11/03 00:02:51;;;;;;;;;;;;;;;5.09;82.64;95527.69;30001;983;1880;-61
2021/11/03 00:03:22;;;;;;;;;;;;;;;5.09;82.53;95519.63;30001;983;1880;-61
2021/11/03 00:03:53;;;;;;;;;;;;;;;5.08;82.39;95522.59;30001;983;1880;-60
2021/11/03 00:04:24;;;;;;;;;;;;;;;5.05;82.67;95518.59;30001;983;1863;-61
2021/11/03 00:04:55;;;;;;;;;;;;;;;5.04;82.59;95514.31;30001;982;1876;-60
2021/11/03 00:05:25;;;;;;;;;;;;;;;5.02;82.66;95516.50;30001;982;1880;-59
2021/11/03 00:05:56;;;;;;;;;;;;;;;5.02;82.86;95517.31;30001;970;1887;-61
2021/11/03 00:06:27;;;;;;;;;;;;;;;5.03;82.96;95520.78;30001;962;1808;-60
2021/11/03 00:06:58;;;;;;;;;;;;;;;5.01;82.93;95518.38;30001;982;1880;-61
2021/11/03 00:07:30;;;;;;;;;;;;;;;5.03;82.97;95518.09;30001;982;1880;-60
2021/11/03 00:08:01;;;;;;;;;;;;;;;5.03;82.89;95520.78;30001;983;1880;-60
2021/11/03 00:08:32;;;;;;;;;;;;;;;5.01;83.03;95526.47;30001;983;1880;-61
2021/11/03 00:09:04;;;;;;;;;;;;;;;4.99;82.70;95517.88;30001;983;1880;-61
2021/11/03 00:09:35;;;;;;;;;;;;;;;4.98;83.18;95521.66;30001;983;1880;-61
2021/11/03 00:10:07;;;;;;;;;;;;;;;4.99;83.03;95522.47;30001;983;1880;-61
2021/11/03 00:10:41;;;;;;;;;;;;;;;5.04;83.13;95528.56;30001;983;1880;-60
2021/11/03 00:11:13;;;;;;;;;;;;;;;5.06;83.29;95528.28;30001;983;1858;-57
2021/11/03 00:11:44;;;;;;;;;;;;;;;5.05;83.01;95521.31;30001;983;1871;-63
2021/11/03 00:12:15;;;;;;;;;;;;;;;5.06;82.70;95522.91;30001;982;1876;-62
2021/11/03 00:12:46;;;;;;;;;;;;;;;5.05;82.97;95522.09;30001;982;1876;-60
2021/11/03 00:13:19;;;;;;;;;;;;;;;5.04;83.05;95531.25;30001;982;1876;-61
2021/11/03 00:13:50;;;;;;;;;;;;;;;5.02;83.19;95530.75;30001;982;1876;-62
2021/11/03 00:14:21;;;;;;;;;;;;;;;5.01;83.10;95531.84;30001;982;1876;-61
2021/11/03 00:14:52;;;;;;;;;;;;;;;5.01;83.39;95531.03;30001;982;1876;-61
2021/11/03 00:15:23;;;;;;;;;;;;;;;4.99;83.31;95531.31;30001;982;1876;-61
2021/11/03 00:15:55;;;;;;;;;;;;;;;4.97;83.62;95530.00;30001;983;1875;-62
2021/11/03 00:16:26;;;;;;;;;;;;;;;4.97;83.54;95532.69;30001;983;1858;-61
2021/11/03 00:16:57;;;;;;;;;;;;;;;4.96;83.77;95534.59;30001;983;1871;-61
2021/11/03 00:17:28;;;;;;;;;;;;;;;4.96;83.48;95534.59;30001;983;1875;-61
2021/11/03 00:17:58;;;;;;;;;;;;;;;4.96;83.93;95528.41;30001;983;1876;-61
2021/11/03 00:18:29;;;;;;;;;;;;;;;4.99;83.68;95530.53;30001;983;1876;-60
2021/11/03 00:19:00;;;;;;;;;;;;;;;4.99;83.72;95533.22;30001;983;1876;-58
2021/11/03 00:19:31;;;;;;;;;;;;;;;4.99;83.51;95527.84;30001;983;1876;-61
2021/11/03 00:20:02;;;;;;;;;;;;;;;5.01;83.87;95528.34;30001;982;1876;-61
2021/11/03 00:20:33;;;;;;;;;;;;;;;5.02;83.79;95529.94;30001;982;1876;-62
2021/11/03 00:21:05;;;;;;;;;;;;;;;5.02;83.91;95527.25;30001;982;1876;-62
2021/11/03 00:21:36;;;;;;;;;;;;;;;5.03;83.94;95528.84;30001;982;1859;-58
2021/11/03 00:22:07;;;;;;;;;;;;;;;5.04;83.67;95535.84;30001;982;1872;-60
2021/11/03 00:22:38;;;;;;;;;;;;;;;5.05;83.61;95532.06;30001;982;1876;-61
2021/11/03 00:23:09;;;;;;;;;;;;;;;5.05;83.79;95532.06;30001;983;1858;-60
2021/11/03 00:23:40;;;;;;;;;;;;;;;5.04;83.57;95538.53;30001;983;1871;-61
2021/11/03 00:24:10;;;;;;;;;;;;;;;5.04;83.93;95535.84;30001;983;1846;-60
2021/11/03 00:24:42;;;;;;;;;;;;;;;5.04;83.78;95541.22;30001;983;1876;-61
2021/11/03 00:25:12;;;;;;;;;;;;;;;5.03;83.83;95535.03;30001;983;1876;-62
2021/11/03 00:25:46;;;;;;;;;;;;;;;5.03;83.83;95539.59;30001;983;1876;-61
2021/11/03 00:26:17;;;;;;;;;;;;;;;5.01;84.01;95539.09;30001;983;1876;-61
2021/11/03 00:26:47;;;;;;;;;;;;;;;5.00;84.24;95540.19;30001;983;1858;-60
2021/11/03 00:27:18;;;;;;;;;;;;;;;5.00;84.10;95540.19;30001;982;1871;-61
2021/11/03 00:27:49;;;;;;;;;;;;;;;5.01;83.98;95533.72;30001;982;1858;-62
2021/11/03 00:28:21;;;;;;;;;;;;;;;5.01;83.88;95544.47;30001;982;1872;-59
2021/11/03 00:28:52;;;;;;;;;;;;;;;5.02;83.73;95540.69;30001;982;1876;-61
2021/11/03 00:29:22;;;;;;;;;;;;;;;5.02;83.83;95538.00;30001;982;1876;-61
2021/11/03 00:29:53;;;;;;;;;;;;;;;5.03;83.74;95539.59;30001;983;1875;-61
2021/11/03 00:30:24;;;;;;;;;;;;;;;5.02;83.80;95544.19;30001;983;1875;-61
2021/11/03 00:30:56;;;;;;;;;;;;;;;5.04;83.63;95535.84;30001;983;1875;-60
2021/11/03 00:31:27;;;;;;;;;;;;;;;5.07;83.55;95540.63;30001;983;1875;-60
2021/11/03 00:31:58;;;;;;;;;;;;;;;5.11;83.25;95547.03;30001;983;1875;-61
2021/11/03 00:32:29;;;;;;;;;;;;;;;5.12;82.91;95543.25;30001;983;1876;-61
2021/11/03 00:33:00;;;;;;;;;;;;;;;5.11;83.14;95541.66;30001;983;1858;-60
2021/11/03 00:33:32;;;;;;;;;;;;;;;5.13;83.09;95542.16;30001;983;1871;-61
2021/11/03 00:34:03;;;;;;;;;;;;;;;5.12;82.78;95537.88;30001;983;1876;-61
2021/11/03 00:34:34;;;;;;;;;;;;;;;5.10;83.03;95537.38;30001;983;1876;-60
2021/11/03 00:35:06;;;;;;;;;;;;;;;5.08;83.09;95538.75;30001;982;1876;-61
2021/11/03 00:35:36;;;;;;;;;;;;;;;5.07;83.13;95535.25;30001;982;1876;-62
2021/11/03 00:36:07;;;;;;;;;;;;;;;5.05;83.30;95537.44;30001;982;1876;-62
2021/11/03 00:36:38;;;;;;;;;;;;;;;5.06;83.41;95539.03;30001;982;1859;-61
2021/11/03 00:37:10;;;;;;;;;;;;;;;5.07;83.57;95535.25;30001;982;1854;-61
2021/11/03 00:37:41;;;;;;;;;;;;;;;5.07;83.39;95527.19;30001;983;1858;-58
2021/11/03 00:38:12;;;;;;;;;;;;;;;5.09;83.24;95533.06;30001;983;1871;-60
2021/11/03 00:38:43;;;;;;;;;;;;;;;5.10;83.41;95521.22;30001;983;1875;-61
2021/11/03 00:39:14;;;;;;;;;;;;;;;5.12;83.07;95527.13;30001;983;1875;-61
2021/11/03 00:39:45;;;;;;;;;;;;;;;5.14;83.21;95530.31;30001;983;1875;-61
2021/11/03 00:40:16;;;;;;;;;;;;;;;5.16;82.99;95521.97;30001;983;1876;-62
2021/11/03 00:40:47;;;;;;;;;;;;;;;5.14;83.11;95522.25;30001;983;1858;-62
2021/11/03 00:41:18;;;;;;;;;;;;;;;5.15;83.01;95510.41;30001;983;1871;-62
2021/11/03 00:41:49;;;;;;;;;;;;;;;5.17;82.87;95518.19;30001;983;1876;-60
2021/11/03 00:42:20;;;;;;;;;;;;;;;5.17;82.71;95518.97;30001;982;1876;-62
2021/11/03 00:42:51;;;;;;;;;;;;;;;5.15;82.83;95521.16;30001;982;1858;-61
2021/11/03 00:43:23;;;;;;;;;;;;;;;5.16;82.82;95517.38;30001;982;1872;-60
2021/11/03 00:43:54;;;;;;;;;;;;;;;5.16;82.87;95522.75;30001;982;1876;-60
2021/11/03 00:44:25;;;;;;;;;;;;;;;5.17;82.88;95518.97;30001;982;1876;-63
2021/11/03 00:44:56;;;;;;;;;;;;;;;5.17;82.59;95512.81;30001;983;1875;-62
2021/11/03 00:45:27;;;;;;;;;;;;;;;5.16;82.42;95522.75;30001;983;1875;-60
2021/11/03 00:45:58;;;;;;;;;;;;;;;5.21;82.80;95513.78;30001;983;1875;-61
2021/11/03 00:46:28;;;;;;;;;;;;;;;5.21;82.58;95516.47;30001;983;1875;-61
2021/11/03 00:46:59;;;;;;;;;;;;;;;5.19;82.73;95518.69;30001;983;1875;-62
2021/11/03 00:47:30;;;;;;;;;;;;;;;5.18;82.82;95517.91;30001;983;1858;-61
2021/11/03 00:48:02;;;;;;;;;;;;;;;5.18;82.55;95515.19;30001;983;1871;-62
2021/11/03 00:48:32;;;;;;;;;;;;;;;5.20;82.66;95514.91;30001;983;1875;-62
2021/11/03 00:49:03;;;;;;;;;;;;;;;5.18;82.58;95509.81;30001;983;1876;-62
2021/11/03 00:49:34;;;;;;;;;;;;;;;5.21;82.69;95508.41;30001;983;1876;-59
2021/11/03 00:50:05;;;;;;;;;;;;;;;5.20;82.61;95507.62;30001;982;1876;-62
2021/11/03 00:50:36;;;;;;;;;;;;;;;5.21;82.63;95503.84;30001;982;1876;-60
2021/11/03 00:51:07;;;;;;;;;;;;;;;5.21;82.65;95501.16;30001;982;1876;-59
2021/11/03 00:51:38;;;;;;;;;;;;;;;5.19;82.48;95495.28;30001;982;1876;-61
2021/11/03 00:52:09;;;;;;;;;;;;;;;5.17;82.75;95492.09;30001;982;1876;-59
2021/11/03 00:52:40;;;;;;;;;;;;;;;5.17;82.80;95489.41;30001;974;1767;-60
2021/11/03 00:53:11;;;;;;;;;;;;;;;5.16;82.80;95490.50;30001;983;1871;-60
2021/11/03 00:53:42;;;;;;;;;;;;;;;5.15;82.86;95488.09;30001;983;1875;-61
2021/11/03 00:54:13;;;;;;;;;;;;;;;5.15;83.08;95488.91;30001;983;1858;-63
2021/11/03 00:54:44;;;;;;;;;;;;;;;5.16;82.86;95493.19;30001;983;1871;-60
2021/11/03 00:55:15;;;;;;;;;;;;;;;5.15;82.98;95496.97;30001;983;1876;-60
2021/11/03 00:55:46;;;;;;;;;;;;;;;5.13;82.84;95483.00;30001;983;1876;-61
2021/11/03 00:56:17;;;;;;;;;;;;;;;5.13;83.11;95491.06;30001;983;1876;-61
2021/11/03 00:56:48;;;;;;;;;;;;;;;5.14;82.94;95489.97;30001;983;1876;-60
2021/11/03 00:57:19;;;;;;;;;;;;;;;5.15;82.94;95488.91;30001;983;1876;-60
2021/11/03 00:57:50;;;;;;;;;;;;;;;5.14;82.85;95489.97;30001;982;1876;-60
2021/11/03 00:58:21;;;;;;;;;;;;;;;5.15;82.95;95486.22;30001;982;1876;-61
2021/11/03 00:58:52;;;;;;;;;;;;;;;5.15;83.04;95490.78;30001;982;1858;-61
2021/11/03 00:59:22;;;;;;;;;;;;;;;5.15;82.99;95488.91;30001;982;1872;-61
2021/11/03 00:59:53;;;;;;;;;;;;;;;5.15;82.88;95488.91;30001;982;1838;-62
2021/11/03 01:00:24;;;;;;;;;;;;;;;5.15;82.89;95491.59;30001;983;1875;-61
2021/11/03 01:00:55;;;;;;;;;;;;;;;5.16;82.76;95485.12;30001;983;1858;-60
2021/11/03 01:01:26;;;;;;;;;;;;;;;5.17;82.95;95488.59;30001;983;1871;-61
2021/11/03 01:01:57;;;;;;;;;;;;;;;5.19;82.49;95483.75;30001;983;1875;-61
2021/11/03 01:02:29;;;;;;;;;;;;;;;5.21;82.54;95487.69;30001;983;1876;-61
2021/11/03 01:03:00;;;;;;;;;;;;;;;5.25;82.23;95494.09;30001;983;1876;-61
2021/11/03 01:03:31;;;;;;;;;;;;;;;5.23;82.30;95485.53;30001;983;1876;-61
2021/11/03 01:04:02;;;;;;;;;;;;;;;5.24;82.07;95492.50;30001;983;1876;-61
2021/11/03 01:04:33;;;;;;;;;;;;;;;5.24;81.99;95492.50;30001;982;1876;-62
2021/11/03 01:05:05;;;;;;;;;;;;;;;5.26;81.80;95493.00;30001;982;1858;-60
2021/11/03 01:05:38;;;;;;;;;;;;;;;5.25;81.56;95488.72;30001;982;1854;-61
2021/11/03 01:06:09;;;;;;;;;;;;;;;5.22;81.74;95489.31;30001;982;1876;-61
2021/11/03 01:06:40;;;;;;;;;;;;;;;5.21;82.04;95489.59;30001;982;1876;-62
2021/11/03 01:07:11;;;;;;;;;;;;;;;5.21;82.14;95495.75;30001;982;1876;-62
2021/11/03 01:07:42;;;;;;;;;;;;;;;5.19;82.49;95484.53;30001;983;1875;-60
2021/11/03 01:08:13;;;;;;;;;;;;;;;5.19;82.58;95489.91;30001;983;1875;-61
2021/11/03 01:08:44;;;;;;;;;;;;;;;5.20;82.76;95494.16;30001;983;1875;-62
2021/11/03 01:09:15;;;;;;;;;;;;;;;5.20;82.16;95488.03;30001;983;1875;-61
2021/11/03 01:09:46;;;;;;;;;;;;;;;5.20;82.40;95488.03;30001;983;1875;-61
2021/11/03 01:10:18;;;;;;;;;;;;;;;5.20;82.29;95491.47;30001;983;1858;-60
2021/11/03 01:10:50;;;;;;;;;;;;;;;5.21;82.37;95482.31;30001;983;1871;-58
2021/11/03 01:11:21;;;;;;;;;;;;;;;5.22;82.25;95483.91;30001;983;1851;-61
2021/11/03 01:11:52;;;;;;;;;;;;;;;5.22;82.38;95489.31;30001;982;1876;-61
2021/11/03 01:12:23;;;;;;;;;;;;;;;5.21;82.39;95490.38;30001;982;1876;-61
2021/11/03 01:12:54;;;;;;;;;;;;;;;5.22;82.33;95488.50;30001;982;1876;-62
2021/11/03 01:13:26;;;;;;;;;;;;;;;5.20;82.18;95482.66;30001;982;1876;-60
2021/11/03 01:13:57;;;;;;;;;;;;;;;5.20;82.44;95486.09;30001;982;1876;-62
2021/11/03 01:14:28;;;;;;;;;;;;;;;5.21;82.35;95482.31;30001;982;1859;-60
2021/11/03 01:15:00;;;;;;;;;;;;;;;5.21;82.21;95476.94;30001;982;1872;-60
2021/11/03 01:15:31;;;;;;;;;;;;;;;5.22;82.26;95478.53;30001;983;1875;-61
2021/11/03 01:16:02;;;;;;;;;;;;;;;5.22;82.28;95478.53;30001;983;1875;-60
2021/11/03 01:16:33;;;;;;;;;;;;;;;5.23;82.17;95480.13;30001;983;1875;-61
2021/11/03 01:17:05;;;;;;;;;;;;;;;5.23;82.15;95474.75;30001;983;1876;-59
2021/11/03 01:17:36;;;;;;;;;;;;;;;5.22;82.44;95473.16;30001;983;1876;-61
2021/11/03 01:18:07;;;;;;;;;;;;;;;5.25;82.22;95472.59;30001;983;1876;-61
2021/11/03 01:18:38;;;;;;;;;;;;;;;5.24;82.44;95470.97;30001;983;1876;-60
2021/11/03 01:19:09;;;;;;;;;;;;;;;5.26;82.15;95474.19;30001;983;1858;-61
2021/11/03 01:19:39;;;;;;;;;;;;;;;5.28;82.17;95465.81;30001;982;1871;-61
2021/11/03 01:20:13;;;;;;;;;;;;;;;5.29;82.22;95465.53;30001;982;1876;-61
2021/11/03 01:20:45;;;;;;;;;;;;;;;5.30;82.03;95464.44;30001;982;1876;-60
2021/11/03 01:21:16;;;;;;;;;;;;;;;5.34;81.63;95464.66;30001;982;1859;-61
2021/11/03 01:21:46;;;;;;;;;;;;;;;5.36;81.64;95455.19;30001;983;1871;-59
2021/11/03 01:22:17;;;;;;;;;;;;;;;5.39;81.53;95461.88;30001;983;1875;-59
2021/11/03 01:22:48;;;;;;;;;;;;;;;5.36;81.13;95460.56;30001;983;1875;-61
2021/11/03 01:23:21;;;;;;;;;;;;;;;5.35;81.48;95461.66;30001;983;1875;-61
2021/11/03 01:23:52;;;;;;;;;;;;;;;5.34;81.37;95459.28;30001;983;1875;-61
2021/11/03 01:24:23;;;;;;;;;;;;;;;5.34;81.25;95462.75;30001;983;1858;-61
2021/11/03 01:24:54;;;;;;;;;;;;;;;5.33;81.54;95455.78;30001;983;1854;-61
2021/11/03 01:25:25;;;;;;;;;;;;;;;5.34;81.29;95453.88;30001;983;1876;-59
2021/11/03 01:25:56;;;;;;;;;;;;;;;5.34;81.38;95464.66;30001;983;1876;-61
2021/11/03 01:26:27;;;;;;;;;;;;;;;5.33;81.47;95460.34;30001;983;1876;-60
2021/11/03 01:26:58;;;;;;;;;;;;;;;5.31;81.53;95457.97;30001;985;1876;-61
2021/11/03 01:27:29;;;;;;;;;;;;;;;5.29;81.64;95468.22;30001;982;1876;-60
2021/11/03 01:28:00;;;;;;;;;;;;;;;5.30;81.70;95467.13;30001;982;1876;-61
2021/11/03 01:28:31;;;;;;;;;;;;;;;5.28;81.83;95469.31;30001;982;1876;-61
2021/11/03 01:29:03;;;;;;;;;;;;;;;5.29;81.82;95462.03;30001;982;1876;-61
2021/11/03 01:29:34;;;;;;;;;;;;;;;5.28;81.83;95466.63;30001;983;1875;-60
2021/11/03 01:30:06;;;;;;;;;;;;;;;5.32;81.94;95467.63;30001;983;1858;-60
2021/11/03 01:30:36;;;;;;;;;;;;;;;5.32;81.77;95456.88;30001;983;1871;-61
2021/11/03 01:31:07;;;;;;;;;;;;;;;5.32;81.62;95464.94;30001;983;1858;-62
2021/11/03 01:31:38;;;;;;;;;;;;;;;5.35;81.69;95461.66;30001;983;1871;-62
2021/11/03 01:32:09;;;;;;;;;;;;;;;5.35;81.46;95461.66;30001;983;1876;-62
2021/11/03 01:32:41;;;;;;;;;;;;;;;5.35;81.69;95455.50;30001;983;1876;-61
2021/11/03 01:33:13;;;;;;;;;;;;;;;5.34;81.68;95460.06;30001;979;1888;-61
2021/11/03 01:33:44;;;;;;;;;;;;;;;5.35;81.85;95461.66;30001;983;1876;-61
2021/11/03 01:34:15;;;;;;;;;;;;;;;5.36;81.49;95457.87;30001;983;1876;-61
2021/11/03 01:34:45;;;;;;;;;;;;;;;5.36;81.37;95454.41;30001;963;1895;-62
2021/11/03 01:35:17;;;;;;;;;;;;;;;5.36;81.45;95457.87;30001;982;1876;-60
2021/11/03 01:35:48;;;;;;;;;;;;;;;5.41;81.31;95459.69;30001;982;1876;-60
2021/11/03 01:36:19;;;;;;;;;;;;;;;5.38;81.48;95461.09;30001;982;1859;-61
2021/11/03 01:36:50;;;;;;;;;;;;;;;5.35;81.54;95467.03;30001;983;1871;-57
2021/11/03 01:37:22;;;;;;;;;;;;;;;5.31;81.91;95465.22;30001;983;1875;-61
2021/11/03 01:37:53;;;;;;;;;;;;;;;5.29;81.74;95460.16;30001;983;1875;-60
2021/11/03 01:38:24;;;;;;;;;;;;;;;5.28;81.96;95465.81;30001;972;1894;-61
2021/11/03 01:38:55;;;;;;;;;;;;;;;5.25;82.11;95467.19;30001;983;1875;-63
2021/11/03 01:39:26;;;;;;;;;;;;;;;5.22;82.56;95467.00;30001;983;1863;-62
2021/11/03 01:39:57;;;;;;;;;;;;;;;5.18;83.14;95466.81;30001;983;1876;-61
2021/11/03 01:40:29;;;;;;;;;;;;;;;5.16;83.08;95468.97;30001;983;1858;-62
2021/11/03 01:41:01;;;;;;;;;;;;;;;5.15;83.27;95467.38;30001;983;1871;-61
2021/11/03 01:41:32;;;;;;;;;;;;;;;5.13;83.27;95469.56;30001;983;1876;-61
2021/11/03 01:42:03;;;;;;;;;;;;;;;5.14;83.43;95471.16;30001;982;1876;-62
2021/11/03 01:42:34;;;;;;;;;;;;;;;5.12;83.78;95476.03;30001;982;1876;-62
2021/11/03 01:43:05;;;;;;;;;;;;;;;5.10;83.89;95463.97;30001;982;1876;-61
2021/11/03 01:43:50;;;;;;;;;;;;;;;5.10;83.67;95470.16;30001;982;1876;-61
2021/11/03 01:44:20;;;;;;;;;;;;;;;5.10;83.83;95472.84;30001;985;1871;-61
2021/11/03 01:44:51;;;;;;;;;;;;;;;5.08;83.65;95471.53;30001;983;1875;-61
2021/11/03 01:45:24;;;;;;;;;;;;;;;5.07;83.80;95476.09;30001;983;1875;-62
2021/11/03 01:46:13;;;;;;;;;;;;;;;5.08;83.93;95471.53;30001;983;1858;-60
2021/11/03 01:46:54;;;;;;;;;;;;;;;5.12;83.90;95470.66;30001;983;1871;-62
2021/11/03 01:48:03;;;;;;;;;;;;;;;5.08;83.35;95476.91;30001;983;1876;-61
2021/11/03 01:48:34;;;;;;;;;;;;;;;5.04;83.49;95472.09;30001;983;1771;-61
2021/11/03 01:49:30;;;;;;;;;;;;;;;5.04;83.63;95476.69;30001;964;1895;-63
2021/11/03 01:50:03;;;;;;;;;;;;;;;4.97;84.34;95482.44;30001;982;1872;-61
2021/11/03 01:50:37;;;;;;;;;;;;;;;4.92;84.66;95476.31;30001;982;1858;-63
2021/11/03 01:51:10;;;;;;;;;;;;;;;4.89;85.24;95479.59;30001;982;1872;-62
2021/11/03 01:51:46;;;;;;;;;;;;;;;4.86;85.12;95474.78;30001;982;1876;-61
2021/11/03 01:52:17;;;;;;;;;;;;;;;4.85;85.27;95481.28;30001;983;1875;-63
2021/11/03 01:52:51;;;;;;;;;;;;;;;4.89;84.69;95468.84;30001;983;1875;-63
2021/11/03 01:53:28;;;;;;;;;;;;;;;4.87;84.74;95471.81;30001;983;1875;-62
2021/11/03 01:54:00;;;;;;;;;;;;;;;4.94;84.54;95476.84;30001;983;1875;-62
2021/11/03 01:54:49;;;;;;;;;;;;;;;4.93;84.37;95470.66;30001;983;1876;-63
2021/11/03 01:55:21;;;;;;;;;;;;;;;4.93;84.00;95469.84;30001;983;1871;-63
2021/11/03 01:55:55;;;;;;;;;;;;;;;4.92;83.87;95468.25;30001;983;1858;-62
2021/11/03 01:56:27;;;;;;;;;;;;;;;4.91;84.29;95474.72;30001;982;1871;-63
2021/11/03 01:56:58;;;;;;;;;;;;;;;4.90;84.40;95470.44;30001;982;1876;-62
2021/11/03 01:57:31;;;;;;;;;;;;;;;4.88;84.34;95468.03;30001;982;1876;-64
2021/11/03 01:58:06;;;;;;;;;;;;;;;4.87;84.62;95471.00;30001;982;1876;-63
2021/11/03 01:58:40;;;;;;;;;;;;;;;4.84;84.62;95468.94;30001;982;1876;-64
2021/11/03 01:59:25;;;;;;;;;;;;;;;4.84;84.64;95466.25;30001;982;1876;-64
2021/11/03 02:00:02;;;;;;;;;;;;;;;4.84;84.98;95467.06;30001;983;1858;-64
2021/11/03 02:00:35;;;;;;;;;;;;;;;4.86;84.84;95467.53;30001;983;1871;-63
2021/11/03 02:01:06;;;;;;;;;;;;;;;4.85;84.79;95459.78;30001;983;1875;-64
2021/11/03 02:01:37;;;;;;;;;;;;;;;4.85;84.88;95465.16;30001;983;1875;-64
2021/11/03 02:02:08;;;;;;;;;;;;;;;4.86;84.80;95464.03;30001;983;1876;-65
2021/11/03 02:02:39;;;;;;;;;;;;;;;4.84;84.90;95463.56;30001;983;1876;-62
2021/11/03 02:03:13;;;;;;;;;;;;;;;4.80;84.83;95457.97;30001;983;1875;-64
2021/11/03 02:03:45;;;;;;;;;;;;;;;4.78;85.21;95462.84;30001;982;1876;-64
2021/11/03 02:04:17;;;;;;;;;;;;;;;4.77;85.32;95455.84;30001;982;1858;-65
2021/11/03 02:04:49;;;;;;;;;;;;;;;4.74;85.38;95456.44;30001;982;1871;-62
2021/11/03 02:05:20;;;;;;;;;;;;;;;4.77;85.56;95452.38;30001;982;1876;-64
2021/11/03 02:05:56;;;;;;;;;;;;;;;4.78;85.64;95451.28;30001;982;1876;-63
2021/11/03 02:06:27;;;;;;;;;;;;;;;4.79;85.43;95452.88;30001;982;1876;-64
2021/11/03 02:07:00;;;;;;;;;;;;;;;4.81;85.54;95456.06;30001;982;1859;-64
2021/11/03 02:07:32;;;;;;;;;;;;;;;4.83;85.76;95454.69;30001;983;1871;-65
2021/11/03 02:08:03;;;;;;;;;;;;;;;4.84;85.58;95450.13;30001;983;1875;-65
2021/11/03 02:08:37;;;;;;;;;;;;;;;4.84;85.29;95444.75;30001;983;1875;-65
2021/11/03 02:09:08;;;;;;;;;;;;;;;4.81;85.46;95442.63;30001;983;1875;-63
2021/11/03 02:09:39;;;;;;;;;;;;;;;4.80;85.50;95449.09;30001;983;1876;-58
2021/11/03 02:10:11;;;;;;;;;;;;;;;4.79;85.64;95442.94;30001;983;1876;-65
2021/11/03 02:10:41;;;;;;;;;;;;;;;4.76;85.85;95445.41;30001;983;1858;-63
2021/11/03 02:11:13;;;;;;;;;;;;;;;4.77;85.91;95433.56;30001;982;1854;-64
2021/11/03 02:11:44;;;;;;;;;;;;;;;4.76;85.88;95440.03;30001;982;1876;-65
2021/11/03 02:12:22;;;;;;;;;;;;;;;4.79;86.15;95442.13;30001;982;1876;-65
2021/11/03 02:12:53;;;;;;;;;;;;;;;4.81;86.08;95431.91;30001;982;1876;-65
2021/11/03 02:13:24;;;;;;;;;;;;;;;4.82;85.94;95431.59;30001;982;1876;-64
2021/11/03 02:13:56;;;;;;;;;;;;;;;4.83;85.93;95427.81;30001;982;1876;-59
2021/11/03 02:14:27;;;;;;;;;;;;;;;4.84;85.85;95431.31;30001;982;1876;-60
2021/11/03 02:14:58;;;;;;;;;;;;;;;4.85;85.87;95430.22;30001;983;1875;-63
2021/11/03 02:15:29;;;;;;;;;;;;;;;4.86;85.77;95431.78;30001;983;1875;-64
2021/11/03 02:16:01;;;;;;;;;;;;;;;4.84;85.93;95434.00;30001;983;1875;-62
2021/11/03 02:16:33;;;;;;;;;;;;;;;4.83;86.04;95432.41;30001;983;1858;-64
2021/11/03 02:17:04;;;;;;;;;;;;;;;4.82;86.06;95436.19;30001;983;1871;-64
2021/11/03 02:17:36;;;;;;;;;;;;;;;4.81;86.15;95427.31;30001;983;1876;-65
2021/11/03 02:18:10;;;;;;;;;;;;;;;4.81;86.27;95423.84;30001;983;1858;-63
2021/11/03 02:18:42;;;;;;;;;;;;;;;4.79;86.44;95423.31;30001;983;1871;-64
2021/11/03 02:19:26;;;;;;;;;;;;;;;4.79;86.43;95420.63;30001;982;1858;-63
2021/11/03 02:19:59;;;;;;;;;;;;;;;4.80;86.62;95423.03;30001;982;1872;-64
2021/11/03 02:20:34;;;;;;;;;;;;;;;4.81;86.43;95423.84;30001;982;1876;-65
2021/11/03 02:21:05;;;;;;;;;;;;;;;4.82;86.90;95415.47;30001;982;1876;-63
2021/11/03 02:21:46;;;;;;;;;;;;;;;4.83;86.66;95417.06;30001;982;1876;-63
2021/11/03 02:22:20;;;;;;;;;;;;;;;4.86;86.75;95415.66;30001;983;1777;-64
2021/11/03 02:23:20;;;;;;;;;;;;;;;4.87;86.64;95409.19;30001;983;1875;-62
2021/11/03 02:24:01;;;;;;;;;;;;;;;4.88;86.65;95408.91;30001;983;1854;-64
2021/11/03 02:24:49;;;;;;;;;;;;;;;4.90;86.60;95411.31;30001;965;1816;-64
2021/11/03 02:25:23;;;;;;;;;;;;;;;4.90;86.80;95412.09;30001;983;1876;-63
2021/11/03 02:26:01;;;;;;;;;;;;;;;4.91;86.45;95412.91;30001;983;1876;-62
2021/11/03 02:26:40;;;;;;;;;;;;;;;4.91;86.47;95415.59;30001;962;1796;-64
2021/11/03 02:27:12;;;;;;;;;;;;;;;4.89;86.54;95417.78;30001;982;1872;-64
2021/11/03 02:27:45;;;;;;;;;;;;;;;4.88;86.75;95408.09;30001;982;1876;-64
2021/11/03 02:28:16;;;;;;;;;;;;;;;4.86;86.65;95416.47;30001;982;1876;-62
2021/11/03 02:28:48;;;;;;;;;;;;;;;4.86;86.77;95411.09;30001;982;1876;-65
2021/11/03 02:29:20;;;;;;;;;;;;;;;4.86;86.69;95415.66;30001;983;1875;-65
2021/11/03 02:29:51;;;;;;;;;;;;;;;4.88;87.12;95416.16;30001;983;1875;-65
2021/11/03 02:30:23;;;;;;;;;;;;;;;4.90;87.29;95416.69;30001;983;1875;-64
2021/11/03 02:30:54;;;;;;;;;;;;;;;4.92;87.17;95411.81;30001;983;1875;-63
2021/11/03 02:31:36;;;;;;;;;;;;;;;4.93;87.06;95418.78;30001;983;1858;-64
2021/11/03 02:32:18;;;;;;;;;;;;;;;4.97;86.94;95411.75;30001;983;1871;-64
2021/11/03 02:32:57;;;;;;;;;;;;;;;4.99;86.75;95420.31;30001;983;1858;-65
2021/11/03 02:33:28;;;;;;;;;;;;;;;5.02;86.28;95419.72;30001;983;1854;-64
2021/11/03 02:33:59;;;;;;;;;;;;;;;5.03;86.27;95418.63;30001;982;1876;-63
2021/11/03 02:34:30;;;;;;;;;;;;;;;5.01;86.34;95416.25;30001;982;1876;-64
2021/11/03 02:35:03;;;;;;;;;;;;;;;5.01;86.24;95421.63;30001;982;1876;-64
2021/11/03 02:35:34;;;;;;;;;;;;;;;5.00;86.33;95420.03;30001;982;1876;-67
2021/11/03 02:36:06;;;;;;;;;;;;;;;4.99;86.46;95418.41;30001;982;1876;-64
2021/11/03 02:36:53;;;;;;;;;;;;;;;4.97;86.62;95427.87;30001;983;1875;-64
2021/11/03 02:37:44;;;;;;;;;;;;;;;4.94;86.88;95433.81;30001;983;1858;-65
2021/11/03 02:38:19;;;;;;;;;;;;;;;4.94;86.91;95423.06;30001;983;1853;-65
2021/11/03 02:38:50;;;;;;;;;;;;;;;4.93;86.99;95424.16;30001;983;1858;-64
2021/11/03 02:39:24;;;;;;;;;;;;;;;4.92;86.95;95428.75;30001;983;1871;-63
2021/11/03 02:40:16;;;;;;;;;;;;;;;4.91;87.07;95429.81;30001;983;1876;-63
2021/11/03 02:40:49;;;;;;;;;;;;;;;4.90;87.28;95427.44;30001;983;1876;-64
2021/11/03 02:41:23;;;;;;;;;;;;;;;4.90;87.34;95428.22;30001;983;1876;-63
2021/11/03 02:41:54;;;;;;;;;;;;;;;4.91;87.46;95429.03;30001;982;1876;-65
2021/11/03 02:42:27;;;;;;;;;;;;;;;4.90;87.41;95428.22;30001;982;1876;-64
2021/11/03 02:43:02;;;;;;;;;;;;;;;4.91;87.29;95427.16;30001;982;1876;-64
2021/11/03 02:43:40;;;;;;;;;;;;;;;4.91;87.19;95429.81;30001;982;1876;-63
2021/11/03 02:44:13;;;;;;;;;;;;;;;4.90;87.17;95427.44;30001;983;1858;-64
2021/11/03 02:44:46;;;;;;;;;;;;;;;4.89;87.36;95426.63;30001;983;1871;-62
2021/11/03 02:45:20;;;;;;;;;;;;;;;4.89;87.57;95423.94;30001;983;1875;-64
2021/11/03 02:45:56;;;;;;;;;;;;;;;4.89;87.44;95423.94;30001;983;1875;-64
2021/11/03 02:46:27;;;;;;;;;;;;;;;4.90;87.45;95422.06;30001;983;1876;-63
2021/11/03 02:46:58;;;;;;;;;;;;;;;4.92;87.35;95426.06;30001;986;1841;-64
2021/11/03 02:47:29;;;;;;;;;;;;;;;4.93;87.16;95424.16;30001;983;1876;-64
2021/11/03 02:48:00;;;;;;;;;;;;;;;4.93;87.13;95416.09;30001;983;1880;-64
2021/11/03 02:48:32;;;;;;;;;;;;;;;4.93;87.19;95421.47;30001;983;1880;-64
2021/11/03 02:49:04;;;;;;;;;;;;;;;4.93;87.03;95416.09;30001;982;1880;-64
2021/11/03 02:49:39;;;;;;;;;;;;;;;4.94;87.11;95415.00;30001;982;1863;-64
2021/11/03 02:50:11;;;;;;;;;;;;;;;4.94;86.96;95417.69;30001;982;1876;-64
2021/11/03 02:50:53;;;;;;;;;;;;;;;4.94;87.19;95417.69;30001;982;1880;-63
2021/11/03 02:51:34;;;;;;;;;;;;;;;4.92;86.91;95414.50;30001;982;1880;-63
2021/11/03 02:52:13;;;;;;;;;;;;;;;4.95;86.87;95416.59;30001;983;1880;-63
2021/11/03 02:52:44;;;;;;;;;;;;;;;4.94;86.83;95413.13;30001;983;1880;-62
2021/11/03 02:53:14;;;;;;;;;;;;;;;4.96;86.90;95416.31;30001;983;1880;-64
2021/11/03 02:53:54;;;;;;;;;;;;;;;4.96;86.82;95420.91;30001;983;1862;-65
2021/11/03 02:54:25;;;;;;;;;;;;;;;4.95;86.72;95416.59;30001;983;1875;-62
2021/11/03 02:54:55;;;;;;;;;;;;;;;4.94;86.84;95418.50;30001;983;1862;-64
2021/11/03 02:55:26;;;;;;;;;;;;;;;4.96;87.08;95415.50;30001;983;1777;-63
2021/11/03 02:55:57;;;;;;;;;;;;;;;4.95;86.71;95408.53;30001;983;1863;-62
2021/11/03 02:56:29;;;;;;;;;;;;;;;4.96;86.56;95412.84;30001;983;1858;-63